sensor_id;sensor_type;location;lat;lon;timestamp;pressure;altitude;pressure_sealevel;temperature;humidity
16255;BME280;8235;52.198;9.904;2023-04-25T00:01:48;99928.69;;;7.46;82.94
16255;BME280;8235;52.198;9.904;2023-04-25T00:04:16;99932.19;;;7.47;82.90
16255;BME280;8235;52.198;9.904;2023-04-25T00:06:44;99927.00;;;7.45;83.29
16255;BME280;8235;52.198;9.904;2023-04-25T00:09:10;99927.94;;;7.44;83.56
16255;BME280;8235;52.198;9.904;2023-04-25T00:11:37;99916.56;;;7.42;83.34
16255;BME280;8235;52.198;9.904;2023-04-25T00:14:04;99928.13;;;7.41;83.53
16255;BME280;8235;52.198;9.904;2023-04-25T00:16:31;99926.41;;;7.40;83.34
16255;BME280;8235;52.198;9.904;2023-04-25T00:18:59;99935.41;;;7.38;82.96
16255;BME280;8235;52.198;9.904;2023-04-25T00:21:28;99934.63;;;7.36;83.42
16255;BME280;8235;52.198;9.904;2023-04-25T00:23:56;99931.13;;;7.35;83.86
16255;BME280;8235;52.198;9.904;2023-04-25T00:26:22;99932.09;;;7.34;83.37
16255;BME280;8235;52.198;9.904;2023-04-25T00:28:48;99937.50;;;7.32;83.08
16255;BME280;8235;52.198;9.904;2023-04-25T00:31:15;99934.94;;;7.31;83.34
16255;BME280;8235;52.198;9.904;2023-04-25T00:33:41;99933.31;;;7.28;83.44
16255;BME280;8235;52.198;9.904;2023-04-25T00:36:08;99933.50;;;7.25;83.63
16255;BME280;8235;52.198;9.904;2023-04-25T00:38:35;99932.75;;;7.23;83.95
16255;BME280;8235;52.198;9.904;2023-04-25T00:41:05;99928.41;;;7.22;83.74
16255;BME280;8235;52.198;9.904;2023-04-25T00:43:32;99936.34;;;7.22;83.59
16255;BME280;8235;52.198;9.904;2023-04-25T00:46:00;99937.28;;;7.21;83.17
16255;BME280;8235;52.198;9.904;2023-04-25T00:48:26;99934.63;;;7.21;84.10
16255;BME280;8235;52.198;9.904;2023-04-25T00:50:54;99926.78;;;7.20;84.40
16255;BME280;8235;52.198;9.904;2023-04-25T00:53:21;99924.44;;;7.15;84.16
16255;BME280;8235;52.198;9.904;2023-04-25T00:55:48;99928.97;;;7.13;84.22
16255;BME280;8235;52.198;9.904;2023-04-25T00:58:17;99930.75;;;7.13;84.33
16255;BME280;8235;52.198;9.904;2023-04-25T01:00:45;99929.06;;;7.12;84.04
16255;BME280;8235;52.198;9.904;2023-04-25T01:03:12;99925.56;;;7.11;84.89
16255;BME280;8235;52.198;9.904;2023-04-25T01:05:39;99933.69;;;7.08;85.03
16255;BME280;8235;52.198;9.904;2023-04-25T01:08:06;99931.03;;;7.08;84.97
16255;BME280;8235;52.198;9.904;2023-04-25T01:10:33;99927.72;;;7.05;85.14
16255;BME280;8235;52.198;9.904;2023-04-25T01:12:59;99922.41;;;7.05;85.41
16255;BME280;8235;52.198;9.904;2023-04-25T01:15:27;99919.78;;;7.05;85.11
16255;BME280;8235;52.198;9.904;2023-04-25T01:17:54;99916.34;;;7.03;85.32
16255;BME280;8235;52.198;9.904;2023-04-25T01:20:22;99911.81;;;7.05;85.41
16255;BME280;8235;52.198;9.904;2023-04-25T01:22:50;99918.91;;;7.04;85.98
16255;BME280;8235;52.198;9.904;2023-04-25T01:25:18;99918.06;;;7.04;85.31
16255;BME280;8235;52.198;9.904;2023-04-25T01:27:45;99920.72;;;7.04;85.77
16255;BME280;8235;52.198;9.904;2023-04-25T01:30:13;99914.66;;;7.02;85.79
16255;BME280;8235;52.198;9.904;2023-04-25T01:32:40;99919.00;;;7.03;86.25
16255;BME280;8235;52.198;9.904;2023-04-25T01:35:10;99921.75;;;7.01;86.01
16255;BME280;8235;52.198;9.904;2023-04-25T01:37:37;99921.75;;;7.01;86.57
16255;BME280;8235;52.198;9.904;2023-04-25T01:40:06;99924.31;;;7.03;86.59
16255;BME280;8235;52.198;9.904;2023-04-25T01:42:34;99932.25;;;7.03;86.64
16255;BME280;8235;52.198;9.904;2023-04-25T01:45:03;99932.34;;;7.01;86.62
16255;BME280;8235;52.198;9.904;2023-04-25T01:47:30;99934.03;;;7.02;86.77
16255;BME280;8235;52.198;9.904;2023-04-25T01:49:56;99933.19;;;7.02;87.03
16255;BME280;8235;52.198;9.904;2023-04-25T01:52:23;99936.69;;;7.02;87.20
16255;BME280;8235;52.198;9.904;2023-04-25T01:54:50;99934.13;;;7.01;86.84
16255;BME280;8235;52.198;9.904;2023-04-25T01:57:18;99940.38;;;7.00;87.30
16255;BME280;8235;52.198;9.904;2023-04-25T01:59:45;99938.78;;;6.97;87.34
16255;BME280;8235;52.198;9.904;2023-04-25T02:02:12;99932.63;;;6.96;88.00
16255;BME280;8235;52.198;9.904;2023-04-25T02:04:39;99940.56;;;6.96;87.77
16255;BME280;8235;52.198;9.904;2023-04-25T02:07:05;99936.13;;;6.97;88.18
16255;BME280;8235;52.198;9.904;2023-04-25T02:09:31;99943.97;;;6.99;87.97
16255;BME280;8235;52.198;9.904;2023-04-25T02:11:58;99942.28;;;6.97;88.19
16255;BME280;8235;52.198;9.904;2023-04-25T02:14:26;99949.28;;;6.99;87.95
16255;BME280;8235;52.198;9.904;2023-04-25T02:16:53;99944.16;;;6.95;88.47
16255;BME280;8235;52.198;9.904;2023-04-25T02:19:20;99943.31;;;6.95;88.48
16255;BME280;8235;52.198;9.904;2023-04-25T02:21:46;99947.66;;;6.96;88.56
16255;BME280;8235;52.198;9.904;2023-04-25T02:24:13;99946.91;;;6.94;88.38
16255;BME280;8235;52.198;9.904;2023-04-25T02:26:39;99940.75;;;6.93;88.63
16255;BME280;8235;52.198;9.904;2023-04-25T02:29:06;99953.03;;;6.94;89.07
16255;BME280;8235;52.198;9.904;2023-04-25T02:31:33;99946.91;;;6.94;89.75
16255;BME280;8235;52.198;9.904;2023-04-25T02:34:00;99949.72;;;6.91;89.63
16255;BME280;8235;52.198;9.904;2023-04-25T02:36:26;99954.94;;;6.92;89.59
16255;BME280;8235;52.198;9.904;2023-04-25T02:38:55;99947.00;;;6.92;90.01
16255;BME280;8235;52.198;9.904;2023-04-25T02:41:21;99948.88;;;6.90;89.86
16255;BME280;8235;52.198;9.904;2023-04-25T02:43:48;99948.88;;;6.90;90.18
16255;BME280;8235;52.198;9.904;2023-04-25T02:46:14;99948.19;;;6.87;90.74
16255;BME280;8235;52.198;9.904;2023-04-25T02:48:42;99954.50;;;6.84;90.90
16255;BME280;8235;52.198;9.904;2023-04-25T02:51:08;99958.88;;;6.85;90.91
16255;BME280;8235;52.198;9.904;2023-04-25T02:53:35;99952.03;;;6.81;91.90
16255;BME280;8235;52.198;9.904;2023-04-25T02:56:02;99962.63;;;6.81;92.00
16255;BME280;8235;52.198;9.904;2023-04-25T02:58:28;99964.53;;;6.79;92.30
16255;BME280;8235;52.198;9.904;2023-04-25T03:00:55;99975.13;;;6.79;92.91
16255;BME280;8235;52.198;9.904;2023-04-25T03:03:21;99978.72;;;6.78;93.35
16255;BME280;8235;52.198;9.904;2023-04-25T03:05:49;99983.16;;;6.78;92.95
16255;BME280;8235;52.198;9.904;2023-04-25T03:08:15;99977.19;;;6.74;93.45
16255;BME280;8235;52.198;9.904;2023-04-25T03:10:42;99993.22;;;6.71;93.52
16255;BME280;8235;52.198;9.904;2023-04-25T03:13:09;99987.94;;;6.71;93.43
16255;BME280;8235;52.198;9.904;2023-04-25T03:15:35;99990.69;;;6.70;93.54
16255;BME280;8235;52.198;9.904;2023-04-25T03:18:02;99993.41;;;6.68;93.79
16255;BME280;8235;52.198;9.904;2023-04-25T03:20:29;99985.63;;;6.65;93.74
16255;BME280;8235;52.198;9.904;2023-04-25T03:22:57;99992.72;;;6.65;93.64
16255;BME280;8235;52.198;9.904;2023-04-25T03:25:23;99998.00;;;6.65;93.63
16255;BME280;8235;52.198;9.904;2023-04-25T03:27:50;99986.69;;;6.63;93.45
16255;BME280;8235;52.198;9.904;2023-04-25T03:30:17;99991.31;;;6.59;93.62
16255;BME280;8235;52.198;9.904;2023-04-25T03:32:43;99991.38;;;6.57;93.78
16255;BME280;8235;52.198;9.904;2023-04-25T03:35:10;99987.91;;;6.57;93.60
16255;BME280;8235;52.198;9.904;2023-04-25T03:37:36;99996.75;;;6.56;93.28
16255;BME280;8235;52.198;9.904;2023-04-25T03:40:05;100001.28;;;6.54;93.09
16255;BME280;8235;52.198;9.904;2023-04-25T03:42:32;100004.78;;;6.54;93.33
16255;BME280;8235;52.198;9.904;2023-04-25T03:44:59;100010.16;;;6.53;93.45
16255;BME280;8235;52.198;9.904;2023-04-25T03:47:25;100017.25;;;6.52;93.16
16255;BME280;8235;52.198;9.904;2023-04-25T03:49:52;100022.44;;;6.54;93.62
16255;BME280;8235;52.198;9.904;2023-04-25T03:52:18;100023.38;;;6.53;93.63
16255;BME280;8235;52.198;9.904;2023-04-25T03:54:45;100022.44;;;6.54;93.33
16255;BME280;8235;52.198;9.904;2023-04-25T03:57:13;100025.09;;;6.54;93.64
16255;BME280;8235;52.198;9.904;2023-04-25T03:59:39;100024.16;;;6.55;93.54
16255;BME280;8235;52.198;9.904;2023-04-25T04:02:06;100025.00;;;6.55;93.96
16255;BME280;8235;52.198;9.904;2023-04-25T04:04:32;100031.16;;;6.56;93.65
16255;BME280;8235;52.198;9.904;2023-04-25T04:06:59;100032.88;;;6.57;94.28
16255;BME280;8235;52.198;9.904;2023-04-25T04:09:25;100041.56;;;6.59;93.92
16255;BME280;8235;52.198;9.904;2023-04-25T04:11:52;100039.00;;;6.57;94.00
16255;BME280;8235;52.198;9.904;2023-04-25T04:14:20;100039.09;;;6.56;94.03
16255;BME280;8235;52.198;9.904;2023-04-25T04:16:46;100040.03;;;6.55;93.99
16255;BME280;8235;52.198;9.904;2023-04-25T04:19:14;100047.97;;;6.55;94.15
16255;BME280;8235;52.198;9.904;2023-04-25T04:21:40;100041.91;;;6.53;94.13
16255;BME280;8235;52.198;9.904;2023-04-25T04:24:07;100047.38;;;6.50;94.04
16255;BME280;8235;52.198;9.904;2023-04-25T04:26:34;100040.28;;;6.50;94.09
16255;BME280;8235;52.198;9.904;2023-04-25T04:29:00;100042.06;;;6.50;94.55
16255;BME280;8235;52.198;9.904;2023-04-25T04:31:28;100043.94;;;6.48;94.28
16255;BME280;8235;52.198;9.904;2023-04-25T04:33:55;100044.88;;;6.47;94.45
16255;BME280;8235;52.198;9.904;2023-04-25T04:36:21;100052.81;;;6.47;94.18
16255;BME280;8235;52.198;9.904;2023-04-25T04:38:48;100069.53;;;6.47;94.58
16255;BME280;8235;52.198;9.904;2023-04-25T04:41:14;100066.91;;;6.47;94.58
16255;BME280;8235;52.198;9.904;2023-04-25T04:43:41;100068.63;;;6.48;94.46
16255;BME280;8235;52.198;9.904;2023-04-25T04:46:08;100071.19;;;6.50;94.23
16255;BME280;8235;52.198;9.904;2023-04-25T04:48:36;100075.59;;;6.49;94.16
16255;BME280;8235;52.198;9.904;2023-04-25T04:51:05;100076.47;;;6.50;94.44
16255;BME280;8235;52.198;9.904;2023-04-25T04:53:32;100077.31;;;6.50;94.37
16255;BME280;8235;52.198;9.904;2023-04-25T04:55:58;100080.03;;;6.49;93.75
16255;BME280;8235;52.198;9.904;2023-04-25T04:58:25;100087.13;;;6.48;93.80
16255;BME280;8235;52.198;9.904;2023-04-25T05:00:54;100093.28;;;6.49;93.80
16255;BME280;8235;52.198;9.904;2023-04-25T05:03:21;100096.78;;;6.49;93.87
16255;BME280;8235;52.198;9.904;2023-04-25T05:05:48;100093.28;;;6.49;93.31
16255;BME280;8235;52.198;9.904;2023-04-25T05:08:15;100093.97;;;6.52;93.51
16255;BME280;8235;52.198;9.904;2023-04-25T05:10:41;100099.25;;;6.52;92.97
16255;BME280;8235;52.198;9.904;2023-04-25T05:13:08;100107.19;;;6.52;92.89
16255;BME280;8235;52.198;9.904;2023-04-25T05:15:34;100109.75;;;6.54;93.24
16255;BME280;8235;52.198;9.904;2023-04-25T05:18:01;100114.97;;;6.55;92.96
16255;BME280;8235;52.198;9.904;2023-04-25T05:20:28;100105.16;;;6.57;92.85
16255;BME280;8235;52.198;9.904;2023-04-25T05:22:56;100117.38;;;6.60;92.53
16255;BME280;8235;52.198;9.904;2023-04-25T05:25:22;100116.34;;;6.63;92.56
16255;BME280;8235;52.198;9.904;2023-04-25T05:27:49;100113.50;;;6.66;92.41
16255;BME280;8235;52.198;9.904;2023-04-25T05:30:16;100121.28;;;6.69;92.68
16255;BME280;8235;52.198;9.904;2023-04-25T05:32:42;100122.91;;;6.71;92.30
16255;BME280;8235;52.198;9.904;2023-04-25T05:35:09;100119.47;;;6.69;92.02
16255;BME280;8235;52.198;9.904;2023-04-25T05:37:35;100124.69;;;6.71;91.22
16255;BME280;8235;52.198;9.904;2023-04-25T05:40:04;100125.53;;;6.71;91.24
16255;BME280;8235;52.198;9.904;2023-04-25T05:42:32;100131.63;;;6.73;91.41
16255;BME280;8235;52.198;9.904;2023-04-25T05:44:58;100135.97;;;6.74;90.70
16255;BME280;8235;52.198;9.904;2023-04-25T05:47:24;100137.59;;;6.77;90.43
16255;BME280;8235;52.198;9.904;2023-04-25T05:49:51;100141.00;;;6.79;90.54
16255;BME280;8235;52.198;9.904;2023-04-25T05:52:18;100143.56;;;6.80;89.77
16255;BME280;8235;52.198;9.904;2023-04-25T05:54:44;100148.09;;;6.78;89.47
16255;BME280;8235;52.198;9.904;2023-04-25T05:57:20;100147.91;;;6.81;89.02
16255;BME280;8235;52.198;9.904;2023-04-25T05:59:46;100157.47;;;6.84;88.65
16255;BME280;8235;52.198;9.904;2023-04-25T06:02:13;100151.84;;;6.90;88.24
16255;BME280;8235;52.198;9.904;2023-04-25T06:04:39;100159.53;;;6.94;87.80
16255;BME280;8235;52.198;9.904;2023-04-25T06:07:06;100157.56;;;6.98;87.80
16255;BME280;8235;52.198;9.904;2023-04-25T06:09:34;100159.38;;;6.97;86.59
16255;BME280;8235;52.198;9.904;2023-04-25T06:12:00;100168.16;;;6.98;85.32
16255;BME280;8235;52.198;9.904;2023-04-25T06:14:28;100175.25;;;6.97;84.76
16255;BME280;8235;52.198;9.904;2023-04-25T06:16:55;100177.13;;;6.95;83.38
16255;BME280;8235;52.198;9.904;2023-04-25T06:19:22;100176.34;;;6.93;82.52
16255;BME280;8235;52.198;9.904;2023-04-25T06:21:48;100179.00;;;6.93;82.10
16255;BME280;8235;52.198;9.904;2023-04-25T06:24:15;100183.44;;;6.93;81.35
16255;BME280;8235;52.198;9.904;2023-04-25T06:26:41;100181.56;;;6.95;80.99
16255;BME280;8235;52.198;9.904;2023-04-25T06:29:08;100180.63;;;6.96;80.47
16255;BME280;8235;52.198;9.904;2023-04-25T06:31:36;100176.84;;;7.00;79.77
16255;BME280;8235;52.198;9.904;2023-04-25T06:34:02;100181.03;;;7.04;79.54
16255;BME280;8235;52.198;9.904;2023-04-25T06:36:28;100187.19;;;7.05;79.45
16255;BME280;8235;52.198;9.904;2023-04-25T06:38:55;100188.72;;;7.09;78.75
16255;BME280;8235;52.198;9.904;2023-04-25T06:41:22;100191.28;;;7.10;78.29
16255;BME280;8235;52.198;9.904;2023-04-25T06:43:48;100189.41;;;7.12;77.57
16255;BME280;8235;52.198;9.904;2023-04-25T06:46:15;100196.25;;;7.16;76.92
16255;BME280;8235;52.198;9.904;2023-04-25T06:48:43;100193.31;;;7.21;76.96
16255;BME280;8235;52.198;9.904;2023-04-25T06:51:09;100196.56;;;7.26;76.10
16255;BME280;8235;52.198;9.904;2023-04-25T06:53:36;100193.59;;;7.32;75.83
16255;BME280;8235;52.198;9.904;2023-04-25T06:56:03;100190.41;;;7.41;75.93
16255;BME280;8235;52.198;9.904;2023-04-25T06:58:29;100199.53;;;7.51;75.27
16255;BME280;8235;52.198;9.904;2023-04-25T07:00:56;100207.88;;;7.59;74.88
16255;BME280;8235;52.198;9.904;2023-04-25T07:03:22;100199.41;;;7.69;73.58
16255;BME280;8235;52.198;9.904;2023-04-25T07:05:50;100196.13;;;7.79;72.86
16255;BME280;8235;52.198;9.904;2023-04-25T07:08:17;100192.72;;;7.91;72.61
16255;BME280;8235;52.198;9.904;2023-04-25T07:10:44;100192.88;;;8.04;72.08
16255;BME280;8235;52.198;9.904;2023-04-25T07:13:11;100203.00;;;8.12;70.60
16255;BME280;8235;52.198;9.904;2023-04-25T07:15:37;100203.00;;;8.12;69.75
16255;BME280;8235;52.198;9.904;2023-04-25T07:18:04;100205.91;;;8.07;67.90
16255;BME280;8235;52.198;9.904;2023-04-25T07:20:31;100208.38;;;8.10;67.05
16255;BME280;8235;52.198;9.904;2023-04-25T07:22:59;100215.81;;;8.19;66.30
16255;BME280;8235;52.198;9.904;2023-04-25T07:25:25;100213.72;;;8.24;65.52
16255;BME280;8235;52.198;9.904;2023-04-25T07:27:52;100217.72;;;8.31;65.33
16255;BME280;8235;52.198;9.904;2023-04-25T07:30:19;100220.22;;;8.34;64.63
16255;BME280;8235;52.198;9.904;2023-04-25T07:32:45;100224.75;;;8.32;64.11
16255;BME280;8235;52.198;9.904;2023-04-25T07:35:12;100213.88;;;8.37;63.95
16255;BME280;8235;52.198;9.904;2023-04-25T07:37:38;100221.34;;;8.45;62.90
16255;BME280;8235;52.198;9.904;2023-04-25T07:40:07;100215.00;;;8.47;62.91
16255;BME280;8235;52.198;9.904;2023-04-25T07:42:34;100213.97;;;8.50;62.84
16255;BME280;8235;52.198;9.904;2023-04-25T07:45:01;100217.28;;;8.53;62.88
16255;BME280;8235;52.198;9.904;2023-04-25T07:47:28;100222.31;;;8.58;63.16
16255;BME280;8235;52.198;9.904;2023-04-25T07:49:55;100223.72;;;8.63;62.55
16255;BME280;8235;52.198;9.904;2023-04-25T07:52:23;100228.16;;;8.63;62.19
16255;BME280;8235;52.198;9.904;2023-04-25T07:54:49;100220.88;;;8.66;61.79
16255;BME280;8235;52.198;9.904;2023-04-25T07:57:17;100231.41;;;8.68;61.76
16255;BME280;8235;52.198;9.904;2023-04-25T07:59:44;100228.09;;;8.64;61.89
16255;BME280;8235;52.198;9.904;2023-04-25T08:02:11;100229.03;;;8.63;61.49
16255;BME280;8235;52.198;9.904;2023-04-25T08:04:37;100244.19;;;8.61;62.34
16255;BME280;8235;52.198;9.904;2023-04-25T08:07:04;100247.06;;;8.58;63.21
16255;BME280;8235;52.198;9.904;2023-04-25T08:09:30;100243.56;;;8.58;62.90
16255;BME280;8235;52.198;9.904;2023-04-25T08:11:59;100250.66;;;8.57;64.19
16255;BME280;8235;52.198;9.904;2023-04-25T08:14:28;100252.66;;;8.54;63.23
16255;BME280;8235;52.198;9.904;2023-04-25T08:17:00;100258.91;;;8.53;63.16
16255;BME280;8235;52.198;9.904;2023-04-25T08:19:26;100253.00;;;8.48;62.58
16255;BME280;8235;52.198;9.904;2023-04-25T08:21:53;100263.44;;;8.51;63.71
16255;BME280;8235;52.198;9.904;2023-04-25T08:24:20;100268.47;;;8.55;62.91
16255;BME280;8235;52.198;9.904;2023-04-25T08:26:47;100269.25;;;8.57;63.20
16255;BME280;8235;52.198;9.904;2023-04-25T08:29:14;100277.22;;;8.57;61.54
16255;BME280;8235;52.198;9.904;2023-04-25T08:31:42;100269.44;;;8.54;59.86
16255;BME280;8235;52.198;9.904;2023-04-25T08:34:08;100276.44;;;8.55;59.50
16255;BME280;8235;52.198;9.904;2023-04-25T08:36:35;100271.59;;;8.62;59.17
16255;BME280;8235;52.198;9.904;2023-04-25T08:39:01;100280.41;;;8.62;58.18
16255;BME280;8235;52.198;9.904;2023-04-25T08:41:28;100283.38;;;8.72;58.11
16255;BME280;8235;52.198;9.904;2023-04-25T08:43:56;100276.34;;;8.85;58.65
16255;BME280;8235;52.198;9.904;2023-04-25T08:46:25;100286.00;;;9.00;57.51
16255;BME280;8235;52.198;9.904;2023-04-25T08:48:56;100294.81;;;9.15;57.50
16255;BME280;8235;52.198;9.904;2023-04-25T08:51:25;100291.41;;;9.27;56.00
16255;BME280;8235;52.198;9.904;2023-04-25T08:53:53;100291.66;;;9.37;55.35
16255;BME280;8235;52.198;9.904;2023-04-25T08:56:20;100290.97;;;9.48;54.66
16255;BME280;8235;52.198;9.904;2023-04-25T08:58:49;100293.69;;;9.60;54.43
16255;BME280;8235;52.198;9.904;2023-04-25T09:01:16;100300.38;;;9.80;54.87
16255;BME280;8235;52.198;9.904;2023-04-25T09:03:43;100302.03;;;9.95;53.24
16255;BME280;8235;52.198;9.904;2023-04-25T09:06:11;100301.09;;;10.09;52.26
16255;BME280;8235;52.198;9.904;2023-04-25T09:08:39;100304.09;;;10.17;51.70
16255;BME280;8235;52.198;9.904;2023-04-25T09:11:06;100298.97;;;10.14;50.67
16255;BME280;8235;52.198;9.904;2023-04-25T09:13:32;100303.66;;;10.10;50.45
16255;BME280;8235;52.198;9.904;2023-04-25T09:15:59;100311.09;;;10.05;50.76
16255;BME280;8235;52.198;9.904;2023-04-25T09:18:27;100311.50;;;9.99;51.23
16255;BME280;8235;52.198;9.904;2023-04-25T09:20:55;100324.16;;;9.96;50.84
16255;BME280;8235;52.198;9.904;2023-04-25T09:23:23;100334.22;;;9.91;50.77
16255;BME280;8235;52.198;9.904;2023-04-25T09:25:52;100338.47;;;9.81;51.00
16255;BME280;8235;52.198;9.904;2023-04-25T09:28:23;100338.19;;;9.71;51.42
16255;BME280;8235;52.198;9.904;2023-04-25T09:30:54;100346.78;;;9.62;52.22
16255;BME280;8235;52.198;9.904;2023-04-25T09:33:27;100352.38;;;9.57;52.80
16255;BME280;8235;52.198;9.904;2023-04-25T09:36:01;100346.41;;;9.54;53.34
16255;BME280;8235;52.198;9.904;2023-04-25T09:38:31;100349.81;;;9.56;53.34
16255;BME280;8235;52.198;9.904;2023-04-25T09:40:59;100350.09;;;9.65;54.33
16255;BME280;8235;52.198;9.904;2023-04-25T09:43:26;100345.88;;;9.75;54.15
16255;BME280;8235;52.198;9.904;2023-04-25T09:45:53;100350.38;;;9.88;53.89
16255;BME280;8235;52.198;9.904;2023-04-25T09:48:25;100358.63;;;9.97;53.04
16255;BME280;8235;52.198;9.904;2023-04-25T09:51:06;100356.31;;;10.05;51.70
16255;BME280;8235;52.198;9.904;2023-04-25T09:53:34;100354.78;;;10.16;51.21
16255;BME280;8235;52.198;9.904;2023-04-25T09:56:03;100358.34;;;10.29;51.28
16255;BME280;8235;52.198;9.904;2023-04-25T09:58:31;100363.59;;;10.43;51.06
16255;BME280;8235;52.198;9.904;2023-04-25T10:01:00;100355.41;;;10.59;50.35
16255;BME280;8235;52.198;9.904;2023-04-25T10:03:29;100354.16;;;10.64;48.86
16255;BME280;8235;52.198;9.904;2023-04-25T10:05:57;100363.19;;;10.62;48.22
16255;BME280;8235;52.198;9.904;2023-04-25T10:08:28;100362.69;;;10.57;47.57
16255;BME280;8235;52.198;9.904;2023-04-25T10:10:59;100363.50;;;10.57;47.97
16255;BME280;8235;52.198;9.904;2023-04-25T10:13:28;100371.63;;;10.56;47.25
16255;BME280;8235;52.198;9.904;2023-04-25T10:15:57;100362.13;;;10.52;47.13
16255;BME280;8235;52.198;9.904;2023-04-25T10:18:24;100366.69;;;10.50;46.48
16255;BME280;8235;52.198;9.904;2023-04-25T10:20:52;100365.94;;;10.48;46.43
16255;BME280;8235;52.198;9.904;2023-04-25T10:23:20;100362.44;;;10.60;47.66
16255;BME280;8235;52.198;9.904;2023-04-25T10:25:48;100365.78;;;10.76;48.24
16255;BME280;8235;52.198;9.904;2023-04-25T10:28:17;100366.31;;;10.94;48.03
16255;BME280;8235;52.198;9.904;2023-04-25T10:30:58;100355.69;;;11.06;47.47
16255;BME280;8235;52.198;9.904;2023-04-25T10:33:35;100359.19;;;11.20;47.68
16255;BME280;8235;52.198;9.904;2023-04-25T10:36:10;100362.38;;;11.25;47.55
16255;BME280;8235;52.198;9.904;2023-04-25T10:38:37;100356.59;;;11.31;47.38
16255;BME280;8235;52.198;9.904;2023-04-25T10:41:05;100357.56;;;11.30;45.88
16255;BME280;8235;52.198;9.904;2023-04-25T10:43:36;100367.91;;;11.22;45.17
16255;BME280;8235;52.198;9.904;2023-04-25T10:46:13;100379.84;;;11.16;45.69
16255;BME280;8235;52.198;9.904;2023-04-25T10:48:46;100381.25;;;11.09;45.37
16255;BME280;8235;52.198;9.904;2023-04-25T10:51:21;100383.38;;;11.04;45.35
16255;BME280;8235;52.198;9.904;2023-04-25T10:54:00;100389.34;;;10.95;45.24
16255;BME280;8235;52.198;9.904;2023-04-25T10:56:27;100392.34;;;10.90;45.63
16255;BME280;8235;52.198;9.904;2023-04-25T10:59:10;100388.06;;;10.88;46.11
16255;BME280;8235;52.198;9.904;2023-04-25T11:01:39;100398.19;;;10.83;46.58
16255;BME280;8235;52.198;9.904;2023-04-25T11:04:19;100393.91;;;10.80;47.29
16255;BME280;8235;52.198;9.904;2023-04-25T11:07:02;100398.69;;;10.75;47.62
16255;BME280;8235;52.198;9.904;2023-04-25T11:09:32;100381.44;;;10.68;47.89
16255;BME280;8235;52.198;9.904;2023-04-25T11:11:59;100384.50;;;10.62;48.41
16255;BME280;8235;52.198;9.904;2023-04-25T11:14:27;100389.31;;;10.57;48.95
16255;BME280;8235;52.198;9.904;2023-04-25T11:16:54;100391.97;;;10.57;49.34
16255;BME280;8235;52.198;9.904;2023-04-25T11:19:21;100390.28;;;10.56;49.47
16255;BME280;8235;52.198;9.904;2023-04-25T11:21:48;100404.31;;;10.58;49.29
16255;BME280;8235;52.198;9.904;2023-04-25T11:24:15;100404.19;;;10.59;49.81
16255;BME280;8235;52.198;9.904;2023-04-25T11:26:42;100396.13;;;10.61;49.82
16255;BME280;8235;52.198;9.904;2023-04-25T11:29:09;100403.34;;;10.59;49.85
16255;BME280;8235;52.198;9.904;2023-04-25T11:31:37;100404.19;;;10.59;50.23
16255;BME280;8235;52.198;9.904;2023-04-25T11:34:03;100398.88;;;10.59;50.75
16255;BME280;8235;52.198;9.904;2023-04-25T11:36:30;100403.44;;;10.57;50.78
16255;BME280;8235;52.198;9.904;2023-04-25T11:38:57;100404.63;;;10.53;50.32
16255;BME280;8235;52.198;9.904;2023-04-25T11:41:25;100405.88;;;10.48;50.17
16255;BME280;8235;52.198;9.904;2023-04-25T11:43:52;100410.25;;;10.49;50.97
16255;BME280;8235;52.198;9.904;2023-04-25T11:46:19;100401.31;;;10.50;51.24
16255;BME280;8235;52.198;9.904;2023-04-25T11:48:47;100409.97;;;10.53;50.86
16255;BME280;8235;52.198;9.904;2023-04-25T11:51:15;100417.84;;;10.55;50.63
16255;BME280;8235;52.198;9.904;2023-04-25T11:53:42;100406.34;;;10.54;50.32
16255;BME280;8235;52.198;9.904;2023-04-25T11:56:11;100418.16;;;10.50;49.76
16255;BME280;8235;52.198;9.904;2023-04-25T11:58:56;100430.81;;;10.47;49.67
16255;BME280;8235;52.198;9.904;2023-04-25T12:01:27;100429.00;;;10.47;49.85
16255;BME280;8235;52.198;9.904;2023-04-25T12:03:55;100431.75;;;10.46;50.04
16255;BME280;8235;52.198;9.904;2023-04-25T12:06:26;100434.81;;;10.39;49.76
16255;BME280;8235;52.198;9.904;2023-04-25T12:09:00;100439.16;;;10.28;49.65
16255;BME280;8235;52.198;9.904;2023-04-25T12:11:30;100442.03;;;10.10;50.62
16255;BME280;8235;52.198;9.904;2023-04-25T12:14:01;100454.41;;;9.97;51.49
16255;BME280;8235;52.198;9.904;2023-04-25T12:16:28;100456.53;;;9.78;52.53
16255;BME280;8235;52.198;9.904;2023-04-25T12:18:57;100458.91;;;9.68;54.48
16255;BME280;8235;52.198;9.904;2023-04-25T12:21:28;100448.66;;;9.62;54.70
16255;BME280;8235;52.198;9.904;2023-04-25T12:23:55;100448.09;;;9.57;55.17
16255;BME280;8235;52.198;9.904;2023-04-25T12:26:22;100457.97;;;9.55;55.08
16255;BME280;8235;52.198;9.904;2023-04-25T12:28:48;100455.31;;;9.55;55.99
16255;BME280;8235;52.198;9.904;2023-04-25T12:31:15;100456.16;;;9.56;55.72
16255;BME280;8235;52.198;9.904;2023-04-25T12:33:41;100448.00;;;9.59;55.99
16255;BME280;8235;52.198;9.904;2023-04-25T12:36:14;100455.59;;;9.65;56.24
16255;BME280;8235;52.198;9.904;2023-04-25T12:38:42;100457.09;;;9.69;55.26
16255;BME280;8235;52.198;9.904;2023-04-25T12:41:09;100451.59;;;9.72;55.15
16255;BME280;8235;52.198;9.904;2023-04-25T12:43:35;100451.22;;;9.78;54.61
16255;BME280;8235;52.198;9.904;2023-04-25T12:46:02;100456.69;;;9.89;55.20
16255;BME280;8235;52.198;9.904;2023-04-25T12:48:29;100455.84;;;10.03;55.65
16255;BME280;8235;52.198;9.904;2023-04-25T12:50:55;100453.13;;;10.17;54.78
16255;BME280;8235;52.198;9.904;2023-04-25T12:53:23;100450.19;;;10.22;52.54
16255;BME280;8235;52.198;9.904;2023-04-25T12:55:50;100442.56;;;10.30;51.54
16255;BME280;8235;52.198;9.904;2023-04-25T12:58:18;100450.25;;;10.34;50.01
16255;BME280;8235;52.198;9.904;2023-04-25T13:00:45;100448.34;;;10.36;48.45
16255;BME280;8235;52.198;9.904;2023-04-25T13:03:12;100450.91;;;10.38;47.90
16255;BME280;8235;52.198;9.904;2023-04-25T13:05:40;100452.88;;;10.49;47.84
16255;BME280;8235;52.198;9.904;2023-04-25T13:08:06;100454.91;;;10.58;47.98
16255;BME280;8235;52.198;9.904;2023-04-25T13:10:34;100458.88;;;10.65;47.55
16255;BME280;8235;52.198;9.904;2023-04-25T13:13:03;100461.63;;;10.63;46.58
16255;BME280;8235;52.198;9.904;2023-04-25T13:15:30;100457.16;;;10.64;46.79